sensor_id;sensor_type;location;lat;lon;timestamp;temperature;humidity
55211;DHT22;41082;52.822;6.666;2023-05-10T00:01:43;14.40;99.90
55211;DHT22;41082;52.822;6.666;2023-05-10T00:04:09;14.40;99.90
55211;DHT22;41082;52.822;6.666;2023-05-10T00:06:34;14.40;99.90
55211;DHT22;41082;52.822;6.666;2023-05-10T00:09:00;14.40;99.90
55211;DHT22;41082;52.822;6.666;2023-05-10T00:11:25;14.30;99.90
55211;DHT22;41082;52.822;6.666;2023-05-10T00:13:51;14.30;99.90
55211;DHT22;41082;52.822;6.666;2023-05-10T00:16:17;14.30;99.90
55211;DHT22;41082;52.822;6.666;2023-05-10T00:18:42;14.20;99.90
55211;DHT22;41082;52.822;6.666;2023-05-10T00:21:08;14.20;99.90
55211;DHT22;41082;52.822;6.666;2023-05-10T00:23:33;14.10;99.90
55211;DHT22;41082;52.822;6.666;2023-05-10T00:25:59;14.10;99.90
55211;DHT22;41082;52.822;6.666;2023-05-10T00:28:25;14.10;99.90
55211;DHT22;41082;52.822;6.666;2023-05-10T00:30:52;14.10;99.90
55211;DHT22;41082;52.822;6.666;2023-05-10T00:33:17;14.00;99.90
55211;DHT22;41082;52.822;6.666;2023-05-10T00:35:43;14.00;99.90
55211;DHT22;41082;52.822;6.666;2023-05-10T00:38:09;14.00;99.90
55211;DHT22;41082;52.822;6.666;2023-05-10T00:40:36;13.90;99.90
55211;DHT22;41082;52.822;6.666;2023-05-10T00:43:02;13.90;99.90
55211;DHT22;41082;52.822;6.666;2023-05-10T00:45:29;13.90;99.90
55211;DHT22;41082;52.822;6.666;2023-05-10T00:47:55;13.90;99.90
55211;DHT22;41082;52.822;6.666;2023-05-10T00:50:24;13.90;99.90
55211;DHT22;41082;52.822;6.666;2023-05-10T00:52:50;13.80;99.90
55211;DHT22;41082;52.822;6.666;2023-05-10T00:55:16;13.80;99.90
55211;DHT22;41082;52.822;6.666;2023-05-10T00:57:42;13.80;99.90
55211;DHT22;41082;52.822;6.666;2023-05-10T01:00:08;13.70;99.90
55211;DHT22;41082;52.822;6.666;2023-05-10T01:02:34;13.70;99.90
55211;DHT22;41082;52.822;6.666;2023-05-10T01:05:02;13.80;99.90
55211;DHT22;41082;52.822;6.666;2023-05-10T01:07:28;13.80;99.90
55211;DHT22;41082;52.822;6.666;2023-05-10T01:09:54;13.80;99.90
55211;DHT22;41082;52.822;6.666;2023-05-10T01:12:20;13.80;99.90
55211;DHT22;41082;52.822;6.666;2023-05-10T01:14:46;13.80;99.90
55211;DHT22;41082;52.822;6.666;2023-05-10T01:17:13;13.80;99.90
55211;DHT22;41082;52.822;6.666;2023-05-10T01:19:39;13.80;99.90
55211;DHT22;41082;52.822;6.666;2023-05-10T01:25:19;13.70;99.90
55211;DHT22;41082;52.822;6.666;2023-05-10T01:28:17;13.70;99.90
55211;DHT22;41082;52.822;6.666;2023-05-10T01:33:43;13.70;99.90
55211;DHT22;41082;52.822;6.666;2023-05-10T01:42:28;13.70;99.90
55211;DHT22;41082;52.822;6.666;2023-05-10T01:45:07;13.70;99.90
55211;DHT22;41082;52.822;6.666;2023-05-10T01:48:09;13.70;99.90
55211;DHT22;41082;52.822;6.666;2023-05-10T01:50:37;13.70;99.90
55211;DHT22;41082;52.822;6.666;2023-05-10T01:53:06;13.60;99.90
55211;DHT22;41082;52.822;6.666;2023-05-10T01:55:35;13.60;99.90
55211;DHT22;41082;52.822;6.666;2023-05-10T01:58:07;13.60;99.90
55211;DHT22;41082;52.822;6.666;2023-05-10T02:00:35;13.60;99.90
55211;DHT22;41082;52.822;6.666;2023-05-10T02:03:05;13.60;99.90
55211;DHT22;41082;52.822;6.666;2023-05-10T02:05:32;13.50;99.90
55211;DHT22;41082;52.822;6.666;2023-05-10T02:07:59;13.50;99.90
55211;DHT22;41082;52.822;6.666;2023-05-10T02:10:27;13.60;99.90
55211;DHT22;41082;52.822;6.666;2023-05-10T02:12:54;13.60;99.90
55211;DHT22;41082;52.822;6.666;2023-05-10T02:15:22;13.60;99.90
55211;DHT22;41082;52.822;6.666;2023-05-10T02:17:49;13.50;99.90
55211;DHT22;41082;52.822;6.666;2023-05-10T02:20:16;13.60;99.90
55211;DHT22;41082;52.822;6.666;2023-05-10T02:22:45;13.50;99.90
55211;DHT22;41082;52.822;6.666;2023-05-10T02:25:13;13.50;99.90
55211;DHT22;41082;52.822;6.666;2023-05-10T02:27:41;13.50;99.90
55211;DHT22;41082;52.822;6.666;2023-05-10T02:30:10;13.50;99.90
55211;DHT22;41082;52.822;6.666;2023-05-10T02:32:36;13.50;99.90
55211;DHT22;41082;52.822;6.666;2023-05-10T02:35:03;13.50;99.90
55211;DHT22;41082;52.822;6.666;2023-05-10T02:37:30;13.50;99.90
55211;DHT22;41082;52.822;6.666;2023-05-10T02:39:56;13.50;99.90
55211;DHT22;41082;52.822;6.666;2023-05-10T02:42:27;13.40;99.90
55211;DHT22;41082;52.822;6.666;2023-05-10T02:44:55;13.50;99.90
55211;DHT22;41082;52.822;6.666;2023-05-10T02:47:21;13.50;99.90
55211;DHT22;41082;52.822;6.666;2023-05-10T02:49:47;13.50;99.90
55211;DHT22;41082;52.822;6.666;2023-05-10T02:52:18;13.50;99.90
55211;DHT22;41082;52.822;6.666;2023-05-10T02:54:46;13.50;99.90
55211;DHT22;41082;52.822;6.666;2023-05-10T02:57:16;13.50;99.90
55211;DHT22;41082;52.822;6.666;2023-05-10T02:59:44;13.50;99.90
55211;DHT22;41082;52.822;6.666;2023-05-10T03:02:14;13.50;99.90
55211;DHT22;41082;52.822;6.666;2023-05-10T03:04:40;13.50;99.90
55211;DHT22;41082;52.822;6.666;2023-05-10T03:07:06;13.50;99.90
55211;DHT22;41082;52.822;6.666;2023-05-10T03:09:32;13.40;99.90
55211;DHT22;41082;52.822;6.666;2023-05-10T03:12:04;13.30;99.90
55211;DHT22;41082;52.822;6.666;2023-05-10T03:14:57;13.30;99.90
55211;DHT22;41082;52.822;6.666;2023-05-10T03:20:11;13.40;99.90
55211;DHT22;41082;52.822;6.666;2023-05-10T03:22:42;13.40;99.90
55211;DHT22;41082;52.822;6.666;2023-05-10T03:25:10;13.40;99.90
55211;DHT22;41082;52.822;6.666;2023-05-10T03:27:40;13.40;99.90
55211;DHT22;41082;52.822;6.666;2023-05-10T03:30:08;13.40;99.90
55211;DHT22;41082;52.822;6.666;2023-05-10T03:32:35;13.40;99.90
55211;DHT22;41082;52.822;6.666;2023-05-10T03:35:07;13.30;99.90
55211;DHT22;41082;52.822;6.666;2023-05-10T03:37:33;13.40;99.90
55211;DHT22;41082;52.822;6.666;2023-05-10T03:39:58;13.40;99.90
55211;DHT22;41082;52.822;6.666;2023-05-10T03:42:24;13.40;99.90
55211;DHT22;41082;52.822;6.666;2023-05-10T03:44:50;13.30;99.90
55211;DHT22;41082;52.822;6.666;2023-05-10T03:47:15;13.30;99.90
55211;DHT22;41082;52.822;6.666;2023-05-10T03:49:41;13.30;99.90
55211;DHT22;41082;52.822;6.666;2023-05-10T03:52:06;13.40;99.90
55211;DHT22;41082;52.822;6.666;2023-05-10T03:54:32;13.30;99.90
55211;DHT22;41082;52.822;6.666;2023-05-10T03:56:57;13.30;99.90
55211;DHT22;41082;52.822;6.666;2023-05-10T03:59:23;13.20;99.90
55211;DHT22;41082;52.822;6.666;2023-05-10T04:01:48;13.20;99.90
55211;DHT22;41082;52.822;6.666;2023-05-10T04:04:14;13.10;99.90
55211;DHT22;41082;52.822;6.666;2023-05-10T04:06:39;13.20;99.90
55211;DHT22;41082;52.822;6.666;2023-05-10T04:09:05;13.10;99.90
55211;DHT22;41082;52.822;6.666;2023-05-10T04:11:31;13.20;99.90
55211;DHT22;41082;52.822;6.666;2023-05-10T04:13:56;13.10;99.90
55211;DHT22;41082;52.822;6.666;2023-05-10T04:16:22;13.10;99.90
55211;DHT22;41082;52.822;6.666;2023-05-10T04:18:47;13.10;99.90
55211;DHT22;41082;52.822;6.666;2023-05-10T04:21:14;13.10;99.90
55211;DHT22;41082;52.822;6.666;2023-05-10T04:23:39;13.10;99.90
55211;DHT22;41082;52.822;6.666;2023-05-10T04:26:05;13.10;99.90
55211;DHT22;41082;52.822;6.666;2023-05-10T04:28:31;13.10;99.90
55211;DHT22;41082;52.822;6.666;2023-05-10T04:31:03;13.10;99.90
55211;DHT22;41082;52.822;6.666;2023-05-10T04:33:30;13.10;99.90
55211;DHT22;41082;52.822;6.666;2023-05-10T04:35:55;13.10;99.90
55211;DHT22;41082;52.822;6.666;2023-05-10T04:38:21;13.10;99.90
55211;DHT22;41082;52.822;6.666;2023-05-10T04:40:46;13.10;99.90
55211;DHT22;41082;52.822;6.666;2023-05-10T04:43:12;13.10;99.90
55211;DHT22;41082;52.822;6.666;2023-05-10T04:45:37;13.10;99.90
55211;DHT22;41082;52.822;6.666;2023-05-10T04:48:03;13.10;99.90
55211;DHT22;41082;52.822;6.666;2023-05-10T04:50:29;13.10;99.90
55211;DHT22;41082;52.822;6.666;2023-05-10T04:52:54;13.10;99.90
55211;DHT22;41082;52.822;6.666;2023-05-10T04:55:20;13.10;99.90
55211;DHT22;41082;52.822;6.666;2023-05-10T04:57:46;13.10;99.90
55211;DHT22;41082;52.822;6.666;2023-05-10T05:00:12;13.10;99.90
55211;DHT22;41082;52.822;6.666;2023-05-10T05:02:37;13.10;99.90
55211;DHT22;41082;52.822;6.666;2023-05-10T05:05:03;13.10;99.90
55211;DHT22;41082;52.822;6.666;2023-05-10T05:07:29;13.20;99.90
55211;DHT22;41082;52.822;6.666;2023-05-10T05:09:56;13.20;99.90
55211;DHT22;41082;52.822;6.666;2023-05-10T05:12:21;13.20;99.90
55211;DHT22;41082;52.822;6.666;2023-05-10T05:14:47;13.20;99.90
55211;DHT22;41082;52.822;6.666;2023-05-10T05:17:12;13.20;99.90
55211;DHT22;41082;52.822;6.666;2023-05-10T05:19:38;13.30;99.90
55211;DHT22;41082;52.822;6.666;2023-05-10T05:22:03;13.30;99.90
55211;DHT22;41082;52.822;6.666;2023-05-10T05:24:35;13.40;99.90
55211;DHT22;41082;52.822;6.666;2023-05-10T05:27:01;13.40;99.90
55211;DHT22;41082;52.822;6.666;2023-05-10T05:29:27;13.40;99.90
55211;DHT22;41082;52.822;6.666;2023-05-10T05:31:52;13.40;99.90
55211;DHT22;41082;52.822;6.666;2023-05-10T05:34:18;13.50;99.90
55211;DHT22;41082;52.822;6.666;2023-05-10T05:36:45;13.50;99.90
55211;DHT22;41082;52.822;6.666;2023-05-10T05:39:11;13.50;99.90
55211;DHT22;41082;52.822;6.666;2023-05-10T05:41:37;13.50;99.90
55211;DHT22;41082;52.822;6.666;2023-05-10T05:44:02;13.50;99.90
55211;DHT22;41082;52.822;6.666;2023-05-10T05:46:28;13.60;99.90
55211;DHT22;41082;52.822;6.666;2023-05-10T05:48:53;13.50;99.90
55211;DHT22;41082;52.822;6.666;2023-05-10T05:51:19;13.60;99.90
55211;DHT22;41082;52.822;6.666;2023-05-10T05:53:45;13.50;99.90
55211;DHT22;41082;52.822;6.666;2023-05-10T05:56:10;13.60;99.90
55211;DHT22;41082;52.822;6.666;2023-05-10T05:58:36;13.60;99.90
55211;DHT22;41082;52.822;6.666;2023-05-10T06:01:02;13.60;99.90
55211;DHT22;41082;52.822;6.666;2023-05-10T06:03:27;13.60;99.90
55211;DHT22;41082;52.822;6.666;2023-05-10T06:05:53;13.60;99.90
55211;DHT22;41082;52.822;6.666;2023-05-10T06:08:18;13.50;99.90
55211;DHT22;41082;52.822;6.666;2023-05-10T06:10:44;13.50;99.90
55211;DHT22;41082;52.822;6.666;2023-05-10T06:13:10;13.50;99.90
55211;DHT22;41082;52.822;6.666;2023-05-10T06:15:36;13.50;99.90
55211;DHT22;41082;52.822;6.666;2023-05-10T06:18:01;13.50;99.90
55211;DHT22;41082;52.822;6.666;2023-05-10T06:20:27;13.50;99.90
55211;DHT22;41082;52.822;6.666;2023-05-10T06:22:52;13.60;99.90
55211;DHT22;41082;52.822;6.666;2023-05-10T06:25:18;13.50;99.90
55211;DHT22;41082;52.822;6.666;2023-05-10T06:27:44;13.50;99.90
55211;DHT22;41082;52.822;6.666;2023-05-10T06:30:10;13.60;99.90
55211;DHT22;41082;52.822;6.666;2023-05-10T06:32:36;13.60;99.90
55211;DHT22;41082;52.822;6.666;2023-05-10T06:35:02;13.60;99.90
55211;DHT22;41082;52.822;6.666;2023-05-10T06:37:27;13.60;99.90
55211;DHT22;41082;52.822;6.666;2023-05-10T06:39:53;13.60;99.90
55211;DHT22;41082;52.822;6.666;2023-05-10T06:42:18;13.60;99.90
55211;DHT22;41082;52.822;6.666;2023-05-10T06:44:44;13.70;99.90
55211;DHT22;41082;52.822;6.666;2023-05-10T06:47:10;13.70;99.90
55211;DHT22;41082;52.822;6.666;2023-05-10T06:49:35;13.70;99.90
55211;DHT22;41082;52.822;6.666;2023-05-10T06:52:01;13.80;99.90
55211;DHT22;41082;52.822;6.666;2023-05-10T06:54:26;13.70;99.90
55211;DHT22;41082;52.822;6.666;2023-05-10T06:56:52;13.70;99.90
55211;DHT22;41082;52.822;6.666;2023-05-10T06:59:18;13.80;99.90
55211;DHT22;41082;52.822;6.666;2023-05-10T07:01:44;13.80;99.90
55211;DHT22;41082;52.822;6.666;2023-05-10T07:04:10;13.70;99.90
55211;DHT22;41082;52.822;6.666;2023-05-10T07:06:35;13.70;99.90
55211;DHT22;41082;52.822;6.666;2023-05-10T07:09:01;13.80;99.90
55211;DHT22;41082;52.822;6.666;2023-05-10T07:11:27;13.80;99.90
55211;DHT22;41082;52.822;6.666;2023-05-10T07:13:52;13.80;99.90
55211;DHT22;41082;52.822;6.666;2023-05-10T07:16:18;13.90;99.90
55211;DHT22;41082;52.822;6.666;2023-05-10T07:18:44;13.80;99.90
55211;DHT22;41082;52.822;6.666;2023-05-10T07:21:09;13.90;99.90
55211;DHT22;41082;52.822;6.666;2023-05-10T07:23:35;13.90;99.90
55211;DHT22;41082;52.822;6.666;2023-05-10T07:26:00;13.90;99.90
55211;DHT22;41082;52.822;6.666;2023-05-10T07:28:27;13.90;99.90
55211;DHT22;41082;52.822;6.666;2023-05-10T07:30:53;14.00;99.90
55211;DHT22;41082;52.822;6.666;2023-05-10T07:33:18;14.00;99.90
55211;DHT22;41082;52.822;6.666;2023-05-10T07:35:44;14.00;99.90
55211;DHT22;41082;52.822;6.666;2023-05-10T07:38:10;14.00;99.90
55211;DHT22;41082;52.822;6.666;2023-05-10T07:40:36;14.10;99.90
55211;DHT22;41082;52.822;6.666;2023-05-10T07:43:02;14.10;99.90
55211;DHT22;41082;52.822;6.666;2023-05-10T07:45:28;14.10;99.90
55211;DHT22;41082;52.822;6.666;2023-05-10T07:47:54;14.10;99.90
55211;DHT22;41082;52.822;6.666;2023-05-10T07:50:19;14.20;99.90
55211;DHT22;41082;52.822;6.666;2023-05-10T07:52:46;14.20;99.90
55211;DHT22;41082;52.822;6.666;2023-05-10T07:55:12;14.10;99.90
55211;DHT22;41082;52.822;6.666;2023-05-10T07:57:38;14.20;99.90
55211;DHT22;41082;52.822;6.666;2023-05-10T08:00:03;14.10;99.90
55211;DHT22;41082;52.822;6.666;2023-05-10T08:02:29;14.10;99.90
55211;DHT22;41082;52.822;6.666;2023-05-10T08:04:55;14.20;99.90
55211;DHT22;41082;52.822;6.666;2023-05-10T08:07:21;14.20;99.90
55211;DHT22;41082;52.822;6.666;2023-05-10T08:09:47;14.10;99.90
55211;DHT22;41082;52.822;6.666;2023-05-10T08:12:12;14.10;99.90
55211;DHT22;41082;52.822;6.666;2023-05-10T08:14:38;14.20;99.90
55211;DHT22;41082;52.822;6.666;2023-05-10T08:17:04;14.20;99.90
55211;DHT22;41082;52.822;6.666;2023-05-10T08:19:29;14.20;99.90
55211;DHT22;41082;52.822;6.666;2023-05-10T08:21:55;14.30;99.90
55211;DHT22;41082;52.822;6.666;2023-05-10T08:24:21;14.40;99.90
55211;DHT22;41082;52.822;6.666;2023-05-10T08:26:47;14.50;99.90
55211;DHT22;41082;52.822;6.666;2023-05-10T08:29:13;14.60;99.90
55211;DHT22;41082;52.822;6.666;2023-05-10T08:31:39;14.60;99.90
55211;DHT22;41082;52.822;6.666;2023-05-10T08:34:05;14.70;99.90
55211;DHT22;41082;52.822;6.666;2023-05-10T08:36:30;14.60;99.90
55211;DHT22;41082;52.822;6.666;2023-05-10T08:38:57;14.70;99.90
55211;DHT22;41082;52.822;6.666;2023-05-10T08:41:24;14.60;99.90
55211;DHT22;41082;52.822;6.666;2023-05-10T08:43:52;14.70;99.90
55211;DHT22;41082;52.822;6.666;2023-05-10T08:46:20;14.70;99.90
55211;DHT22;41082;52.822;6.666;2023-05-10T08:48:46;14.70;99.90
55211;DHT22;41082;52.822;6.666;2023-05-10T08:51:35;14.70;99.90
55211;DHT22;41082;52.822;6.666;2023-05-10T08:54:02;14.70;99.90
55211;DHT22;41082;52.822;6.666;2023-05-10T08:56:28;14.60;99.90
55211;DHT22;41082;52.822;6.666;2023-05-10T08:58:53;14.60;99.90
55211;DHT22;41082;52.822;6.666;2023-05-10T09:01:21;14.60;99.90
55211;DHT22;41082;52.822;6.666;2023-05-10T09:03:47;14.60;99.90
55211;DHT22;41082;52.822;6.666;2023-05-10T09:06:13;14.60;99.90
55211;DHT22;41082;52.822;6.666;2023-05-10T09:08:41;14.60;99.90
55211;DHT22;41082;52.822;6.666;2023-05-10T09:11:07;14.60;99.90
55211;DHT22;41082;52.822;6.666;2023-05-10T09:13:34;14.70;99.90
55211;DHT22;41082;52.822;6.666;2023-05-10T09:16:01;14.70;99.90
55211;DHT22;41082;52.822;6.666;2023-05-10T09:18:26;14.70;99.90
55211;DHT22;41082;52.822;6.666;2023-05-10T09:20:52;14.80;99.90
55211;DHT22;41082;52.822;6.666;2023-05-10T09:23:18;14.80;99.90
55211;DHT22;41082;52.822;6.666;2023-05-10T09:25:43;14.90;99.90
55211;DHT22;41082;52.822;6.666;2023-05-10T09:28:10;15.00;99.90
55211;DHT22;41082;52.822;6.666;2023-05-10T09:30:36;15.00;99.90
55211;DHT22;41082;52.822;6.666;2023-05-10T09:33:02;15.10;99.90
55211;DHT22;41082;52.822;6.666;2023-05-10T09:35:30;15.10;99.90
55211;DHT22;41082;52.822;6.666;2023-05-10T09:37:58;15.20;99.90
55211;DHT22;41082;52.822;6.666;2023-05-10T09:40:26;15.10;99.90
55211;DHT22;41082;52.822;6.666;2023-05-10T09:43:03;15.10;99.90
55211;DHT22;41082;52.822;6.666;2023-05-10T09:45:31;15.20;99.90
55211;DHT22;41082;52.822;6.666;2023-05-10T09:47:57;15.20;99.90
55211;DHT22;41082;52.822;6.666;2023-05-10T09:50:25;15.20;99.90
55211;DHT22;41082;52.822;6.666;2023-05-10T09:52:56;15.20;99.90
55211;DHT22;41082;52.822;6.666;2023-05-10T09:58:01;15.40;99.90
55211;DHT22;41082;52.822;6.666;2023-05-10T10:00:28;15.40;99.90
55211;DHT22;41082;52.822;6.666;2023-05-10T10:03:00;15.60;99.90
55211;DHT22;41082;52.822;6.666;2023-05-10T10:07:56;15.80;99.90
55211;DHT22;41082;52.822;6.666;2023-05-10T10:10:23;15.90;99.90
55211;DHT22;41082;52.822;6.666;2023-05-10T10:12:49;16.00;99.90
55211;DHT22;41082;52.822;6.666;2023-05-10T10:15:15;16.10;99.90
55211;DHT22;41082;52.822;6.666;2023-05-10T10:17:43;16.20;99.90
55211;DHT22;41082;52.822;6.666;2023-05-10T10:20:09;16.30;99.90
55211;DHT22;41082;52.822;6.666;2023-05-10T10:22:36;16.40;99.90
55211;DHT22;41082;52.822;6.666;2023-05-10T10:25:02;16.40;99.90
55211;DHT22;41082;52.822;6.666;2023-05-10T10:30:34;16.30;99.90
55211;DHT22;41082;52.822;6.666;2023-05-10T10:35:54;16.20;99.90
55211;DHT22;41082;52.822;6.666;2023-05-10T10:38:20;16.10;99.90
55211;DHT22;41082;52.822;6.666;2023-05-10T10:40:47;16.00;99.90
55211;DHT22;41082;52.822;6.666;2023-05-10T10:43:26;16.00;99.90
55211;DHT22;41082;52.822;6.666;2023-05-10T10:46:12;15.90;99.90
55211;DHT22;41082;52.822;6.666;2023-05-10T10:48:43;15.90;99.90
55211;DHT22;41082;52.822;6.666;2023-05-10T10:51:13;16.00;99.90
55211;DHT22;41082;52.822;6.666;2023-05-10T10:53:40;16.10;99.90
55211;DHT22;41082;52.822;6.666;2023-05-10T10:56:11;16.10;99.90
55211;DHT22;41082;52.822;6.666;2023-05-10T10:58:39;16.10;99.90
55211;DHT22;41082;52.822;6.666;2023-05-10T11:01:15;16.10;99.90
55211;DHT22;41082;52.822;6.666;2023-05-10T11:06:33;16.10;99.90
55211;DHT22;41082;52.822;6.666;2023-05-10T11:09:05;16.10;99.90
55211;DHT22;41082;52.822;6.666;2023-05-10T11:11:31;16.20;99.90
55211;DHT22;41082;52.822;6.666;2023-05-10T11:14:03;16.20;99.90
55211;DHT22;41082;52.822;6.666;2023-05-10T11:16:43;16.20;99.90
55211;DHT22;41082;52.822;6.666;2023-05-10T11:19:11;16.30;99.90
55211;DHT22;41082;52.822;6.666;2023-05-10T11:21:50;16.40;99.90
55211;DHT22;41082;52.822;6.666;2023-05-10T11:24:23;16.40;99.90
55211;DHT22;41082;52.822;6.666;2023-05-10T11:26:53;16.40;99.90
55211;DHT22;41082;52.822;6.666;2023-05-10T11:29:19;16.40;99.90
55211;DHT22;41082;52.822;6.666;2023-05-10T11:31:46;16.40;99.90
55211;DHT22;41082;52.822;6.666;2023-05-10T11:34:26;16.40;99.90
55211;DHT22;41082;52.822;6.666;2023-05-10T11:36:53;16.50;99.90
55211;DHT22;41082;52.822;6.666;2023-05-10T11:39:20;16.40;99.90
55211;DHT22;41082;52.822;6.666;2023-05-10T11:41:49;16.40;99.90
55211;DHT22;41082;52.822;6.666;2023-05-10T11:44:15;16.50;99.90
55211;DHT22;41082;52.822;6.666;2023-05-10T11:46:40;16.40;99.90
55211;DHT22;41082;52.822;6.666;2023-05-10T11:49:07;16.40;99.90
55211;DHT22;41082;52.822;6.666;2023-05-10T11:51:36;16.40;99.90
55211;DHT22;41082;52.822;6.666;2023-05-10T11:54:08;16.40;99.90
55211;DHT22;41082;52.822;6.666;2023-05-10T11:56:39;16.40;99.90
55211;DHT22;41082;52.822;6.666;2023-05-10T11:59:05;16.40;99.90
55211;DHT22;41082;52.822;6.666;2023-05-10T12:01:31;16.40;99.90
55211;DHT22;41082;52.822;6.666;2023-05-10T12:03:57;16.50;99.90
55211;DHT22;41082;52.822;6.666;2023-05-10T12:06:27;16.50;99.90
55211;DHT22;41082;52.822;6.666;2023-05-10T12:08:53;16.60;99.90
55211;DHT22;41082;52.822;6.666;2023-05-10T12:11:19;16.70;99.90
55211;DHT22;41082;52.822;6.666;2023-05-10T12:13:47;16.70;99.90
55211;DHT22;41082;52.822;6.666;2023-05-10T12:16:23;16.90;99.90
55211;DHT22;41082;52.822;6.666;2023-05-10T12:18:51;16.90;99.90
55211;DHT22;41082;52.822;6.666;2023-05-10T12:21:18;17.00;99.90
55211;DHT22;41082;52.822;6.666;2023-05-10T12:23:52;17.00;99.90
55211;DHT22;41082;52.822;6.666;2023-05-10T12:26:18;17.10;99.90
55211;DHT22;41082;52.822;6.666;2023-05-10T12:28:43;17.10;99.90
55211;DHT22;41082;52.822;6.666;2023-05-10T12:31:09;17.10;99.90
55211;DHT22;41082;52.822;6.666;2023-05-10T12:33:41;17.10;99.90
55211;DHT22;41082;52.822;6.666;2023-05-10T12:36:09;17.00;99.90
55211;DHT22;41082;52.822;6.666;2023-05-10T12:38:36;17.00;99.90
55211;DHT22;41082;52.822;6.666;2023-05-10T12:41:05;17.00;99.90
55211;DHT22;41082;52.822;6.666;2023-05-10T12:43:31;17.00;99.90
55211;DHT22;41082;52.822;6.666;2023-05-10T12:45:57;17.00;99.90
55211;DHT22;41082;52.822;6.666;2023-05-10T12:48:22;17.10;99.90
55211;DHT22;41082;52.822;6.666;2023-05-10T12:50:48;17.10;99.90
55211;DHT22;41082;52.822;6.666;2023-05-10T12:53:14;17.10;99.90
55211;DHT22;41082;52.822;6.666;2023-05-10T12:55:41;17.10;99.90
55211;DHT22;41082;52.822;6.666;2023-05-10T12:58:07;17.00;99.90
55211;DHT22;41082;52.822;6.666;2023-05-10T13:00:32;17.00;99.90
55211;DHT22;41082;52.822;6.666;2023-05-10T13:02:58;16.80;99.90
55211;DHT22;41082;52.822;6.666;2023-05-10T13:05:24;16.80;99.90
55211;DHT22;41082;52.822;6.666;2023-05-10T13:07:49;16.80;99.90
55211;DHT22;41082;52.822;6.666;2023-05-10T13:10:16;16.70;99.90
55211;DHT22;41082;52.822;6.666;2023-05-10T13:12:41;16.70;99.90
55211;DHT22;41082;52.822;6.666;2023-05-10T13:15:07;16.80;99.90
55211;DHT22;41082;52.822;6.666;2023-05-10T13:17:33;16.80;99.90
55211;DHT22;41082;52.822;6.666;2023-05-10T13:19:58;16.80;99.90
55211;DHT22;41082;52.822;6.666;2023-05-10T13:22:24;16.90;99.90
55211;DHT22;41082;52.822;6.666;2023-05-10T13:24:50;16.90;99.90
55211;DHT22;41082;52.822;6.666;2023-05-10T13:27:15;16.90;99.90
55211;DHT22;41082;52.822;6.666;2023-05-10T13:29:41;16.90;99.90
55211;DHT22;41082;52.822;6.666;2023-05-10T13:32:07;16.70;99.90
55211;DHT22;41082;52.822;6.666;2023-05-10T13:34:32;16.50;99.90
55211;DHT22;41082;52.822;6.666;2023-05-10T13:36:59;16.50;99.90
55211;DHT22;41082;52.822;6.666;2023-05-10T13:39:24;16.30;99.90
55211;DHT22;41082;52.822;6.666;2023-05-10T13:41:50;16.20;99.90
55211;DHT22;41082;52.822;6.666;2023-05-10T13:44:15;16.10;99.90
55211;DHT22;41082;52.822;6.666;2023-05-10T13:46:42;16.00;99.90
55211;DHT22;41082;52.822;6.666;2023-05-10T13:49:08;16.00;99.90
55211;DHT22;41082;52.822;6.666;2023-05-10T13:51:34;15.90;99.90
55211;DHT22;41082;52.822;6.666;2023-05-10T13:54:01;15.90;99.90
55211;DHT22;41082;52.822;6.666;2023-05-10T13:56:27;15.80;99.90
55211;DHT22;41082;52.822;6.666;2023-05-10T13:58:52;15.90;99.90
55211;DHT22;41082;52.822;6.666;2023-05-10T14:01:18;15.90;99.90
55211;DHT22;41082;52.822;6.666;2023-05-10T14:03:44;15.90;99.90
55211;DHT22;41082;52.822;6.666;2023-05-10T14:06:10;15.90;99.90
55211;DHT22;41082;52.822;6.666;2023-05-10T14:08:35;16.00;99.90
55211;DHT22;41082;52.822;6.666;2023-05-10T14:11:01;16.00;99.90
55211;DHT22;41082;52.822;6.666;2023-05-10T14:13:27;16.10;99.90
55211;DHT22;41082;52.822;6.666;2023-05-10T14:15:53;16.10;99.90
55211;DHT22;41082;52.822;6.666;2023-05-10T14:18:19;16.20;99.90
55211;DHT22;41082;52.822;6.666;2023-05-10T14:20:45;16.20;99.90
55211;DHT22;41082;52.822;6.666;2023-05-10T14:23:10;16.30;99.90
55211;DHT22;41082;52.822;6.666;2023-05-10T14:25:36;16.30;99.90
55211;DHT22;41082;52.822;6.666;2023-05-10T14:28:03;16.40;99.90
55211;DHT22;41082;52.822;6.666;2023-05-10T14:30:28;16.40;99.90
55211;DHT22;41082;52.822;6.666;2023-05-10T14:32:54;16.50;99.90
55211;DHT22;41082;52.822;6.666;2023-05-10T14:35:20;16.50;99.90
55211;DHT22;41082;52.822;6.666;2023-05-10T14:37:46;16.60;99.90
55211;DHT22;41082;52.822;6.666;2023-05-10T14:40:12;16.70;99.90
55211;DHT22;41082;52.822;6.666;2023-05-10T14:42:38;16.80;99.90
55211;DHT22;41082;52.822;6.666;2023-05-10T14:45:04;16.80;99.90
55211;DHT22;41082;52.822;6.666;2023-05-10T14:47:29;16.90;99.90
55211;DHT22;41082;52.822;6.666;2023-05-10T14:49:55;17.00;99.90
55211;DHT22;41082;52.822;6.666;2023-05-10T14:52:21;17.10;99.90
55211;DHT22;41082;52.822;6.666;2023-05-10T14:54:46;17.10;99.90
55211;DHT22;41082;52.822;6.666;2023-05-10T14:57:12;17.10;99.90
55211;DHT22;41082;52.822;6.666;2023-05-10T14:59:38;17.20;99.90
55211;DHT22;41082;52.822;6.666;2023-05-10T15:02:03;17.20;99.90
55211;DHT22;41082;52.822;6.666;2023-05-10T15:04:29;17.30;99.90
55211;DHT22;41082;52.822;6.666;2023-05-10T15:06:55;17.20;99.90
55211;DHT22;41082;52.822;6.666;2023-05-10T15:09:24;17.30;99.90
55211;DHT22;41082;52.822;6.666;2023-05-10T15:11:50;17.30;99.90
55211;DHT22;41082;52.822;6.666;2023-05-10T15:14:15;17.30;99.90
55211;DHT22;41082;52.822;6.666;2023-05-10T15:16:41;17.40;99.90
55211;DHT22;41082;52.822;6.666;2023-05-10T15:19:06;17.30;99.90
55211;DHT22;41082;52.822;6.666;2023-05-10T15:21:32;17.30;99.90
55211;DHT22;41082;52.822;6.666;2023-05-10T15:24:04;17.40;99.90
55211;DHT22;41082;52.822;6.666;2023-05-10T15:26:30;17.30;99.90
55211;DHT22;41082;52.822;6.666;2023-05-10T15:28:56;17.30;99.90
55211;DHT22;41082;52.822;6.666;2023-05-10T15:31:21;17.30;99.90
55211;DHT22;41082;52.822;6.666;2023-05-10T15:33:47;17.30;99.90
55211;DHT22;41082;52.822;6.666;2023-05-10T15:36:12;17.40;99.90
55211;DHT22;41082;52.822;6.666;2023-05-10T15:38:38;17.40;99.90
55211;DHT22;41082;52.822;6.666;2023-05-10T15:41:03;17.30;99.90
55211;DHT22;41082;52.822;6.666;2023-05-10T15:43:29;17.30;99.90
55211;DHT22;41082;52.822;6.666;2023-05-10T15:45:54;17.40;99.90
55211;DHT22;41082;52.822;6.666;2023-05-10T15:48:20;17.40;99.90
55211;DHT22;41082;52.822;6.666;2023-05-10T15:50:46;17.40;99.90
55211;DHT22;41082;52.822;6.666;2023-05-10T15:53:11;17.50;99.90
55211;DHT22;41082;52.822;6.666;2023-05-10T15:55:37;17.50;99.90
55211;DHT22;41082;52.822;6.666;2023-05-10T15:58:02;17.40;99.90